sensor_id;sensor_type;location;lat;lon;timestamp;P1;durP1;ratioP1;P2;durP2;ratioP2
8993;SDS011;4532;50.886;4.700;2022-07-17T00:01:39;4.43;;;1.10;;
8993;SDS011;4532;50.886;4.700;2022-07-17T00:04:06;3.00;;;1.17;;
8993;SDS011;4532;50.886;4.700;2022-07-17T00:06:33;3.95;;;1.13;;
8993;SDS011;4532;50.886;4.700;2022-07-17T00:09:03;2.40;;;1.42;;
8993;SDS011;4532;50.886;4.700;2022-07-17T00:11:35;2.63;;;1.40;;
8993;SDS011;4532;50.886;4.700;2022-07-17T00:14:03;3.17;;;1.58;;
8993;SDS011;4532;50.886;4.700;2022-07-17T00:16:30;3.55;;;1.13;;
8993;SDS011;4532;50.886;4.700;2022-07-17T00:18:57;4.28;;;1.50;;
8993;SDS011;4532;50.886;4.700;2022-07-17T00:21:25;1.83;;;1.25;;
8993;SDS011;4532;50.886;4.700;2022-07-17T00:23:52;3.38;;;1.38;;
8993;SDS011;4532;50.886;4.700;2022-07-17T00:26:20;2.17;;;1.30;;
8993;SDS011;4532;50.886;4.700;2022-07-17T00:28:47;1.98;;;1.13;;
8993;SDS011;4532;50.886;4.700;2022-07-17T00:31:17;1.88;;;1.23;;
8993;SDS011;4532;50.886;4.700;2022-07-17T00:33:49;4.00;;;1.30;;
8993;SDS011;4532;50.886;4.700;2022-07-17T00:36:16;2.92;;;1.08;;
8993;SDS011;4532;50.886;4.700;2022-07-17T00:38:46;3.53;;;1.20;;
8993;SDS011;4532;50.886;4.700;2022-07-17T00:41:14;2.30;;;1.40;;
8993;SDS011;4532;50.886;4.700;2022-07-17T00:43:41;1.75;;;1.10;;
8993;SDS011;4532;50.886;4.700;2022-07-17T00:46:11;2.60;;;1.25;;
8993;SDS011;4532;50.886;4.700;2022-07-17T00:48:38;3.92;;;1.25;;
8993;SDS011;4532;50.886;4.700;2022-07-17T00:51:06;2.92;;;1.40;;
8993;SDS011;4532;50.886;4.700;2022-07-17T00:53:38;3.58;;;1.50;;
8993;SDS011;4532;50.886;4.700;2022-07-17T00:56:08;5.63;;;1.65;;
8993;SDS011;4532;50.886;4.700;2022-07-17T00:58:38;4.22;;;1.65;;
8993;SDS011;4532;50.886;4.700;2022-07-17T01:01:08;3.42;;;1.23;;
8993;SDS011;4532;50.886;4.700;2022-07-17T01:03:35;3.85;;;1.65;;
8993;SDS011;4532;50.886;4.700;2022-07-17T01:06:05;4.82;;;1.80;;
8993;SDS011;4532;50.886;4.700;2022-07-17T01:08:33;4.57;;;1.75;;
8993;SDS011;4532;50.886;4.700;2022-07-17T01:11:03;3.40;;;1.30;;
8993;SDS011;4532;50.886;4.700;2022-07-17T01:13:34;2.83;;;1.20;;
8993;SDS011;4532;50.886;4.700;2022-07-17T01:16:02;2.85;;;1.40;;
8993;SDS011;4532;50.886;4.700;2022-07-17T01:18:32;5.22;;;1.40;;
8993;SDS011;4532;50.886;4.700;2022-07-17T01:21:03;3.10;;;1.30;;
8993;SDS011;4532;50.886;4.700;2022-07-17T01:23:34;5.57;;;1.70;;
8993;SDS011;4532;50.886;4.700;2022-07-17T01:26:01;3.35;;;1.90;;
8993;SDS011;4532;50.886;4.700;2022-07-17T01:28:33;7.30;;;1.70;;
8993;SDS011;4532;50.886;4.700;2022-07-17T01:31:01;5.13;;;1.85;;
8993;SDS011;4532;50.886;4.700;2022-07-17T01:33:30;3.45;;;1.60;;
8993;SDS011;4532;50.886;4.700;2022-07-17T01:35:59;3.60;;;1.25;;
8993;SDS011;4532;50.886;4.700;2022-07-17T01:38:26;4.85;;;1.65;;
8993;SDS011;4532;50.886;4.700;2022-07-17T01:40:54;4.38;;;1.80;;
8993;SDS011;4532;50.886;4.700;2022-07-17T01:43:21;4.63;;;1.65;;
8993;SDS011;4532;50.886;4.700;2022-07-17T01:45:48;3.47;;;1.63;;
8993;SDS011;4532;50.886;4.700;2022-07-17T01:48:28;3.53;;;1.70;;
8993;SDS011;4532;50.886;4.700;2022-07-17T01:50:58;3.42;;;1.73;;
8993;SDS011;4532;50.886;4.700;2022-07-17T01:53:25;5.30;;;2.00;;
8993;SDS011;4532;50.886;4.700;2022-07-17T01:55:56;4.03;;;1.60;;
8993;SDS011;4532;50.886;4.700;2022-07-17T01:58:28;4.25;;;1.90;;
8993;SDS011;4532;50.886;4.700;2022-07-17T02:00:57;4.80;;;1.80;;
8993;SDS011;4532;50.886;4.700;2022-07-17T02:03:25;3.42;;;1.70;;
8993;SDS011;4532;50.886;4.700;2022-07-17T02:05:54;5.00;;;1.80;;
8993;SDS011;4532;50.886;4.700;2022-07-17T02:08:21;2.35;;;1.38;;
8993;SDS011;4532;50.886;4.700;2022-07-17T02:10:49;2.85;;;1.40;;
8993;SDS011;4532;50.886;4.700;2022-07-17T02:13:16;4.60;;;2.00;;
8993;SDS011;4532;50.886;4.700;2022-07-17T02:15:43;3.80;;;1.73;;
8993;SDS011;4532;50.886;4.700;2022-07-17T02:18:11;2.35;;;1.52;;
8993;SDS011;4532;50.886;4.700;2022-07-17T02:20:38;3.53;;;1.75;;
8993;SDS011;4532;50.886;4.700;2022-07-17T02:23:05;3.17;;;1.85;;
8993;SDS011;4532;50.886;4.700;2022-07-17T02:25:32;2.60;;;1.45;;
8993;SDS011;4532;50.886;4.700;2022-07-17T02:28:02;3.35;;;1.60;;
8993;SDS011;4532;50.886;4.700;2022-07-17T02:30:32;4.10;;;1.77;;
8993;SDS011;4532;50.886;4.700;2022-07-17T02:32:59;4.75;;;1.98;;
8993;SDS011;4532;50.886;4.700;2022-07-17T02:35:26;5.30;;;2.20;;
8993;SDS011;4532;50.886;4.700;2022-07-17T02:37:54;2.88;;;1.88;;
8993;SDS011;4532;50.886;4.700;2022-07-17T02:40:24;5.18;;;1.95;;
8993;SDS011;4532;50.886;4.700;2022-07-17T02:42:52;6.03;;;1.52;;
8993;SDS011;4532;50.886;4.700;2022-07-17T02:45:19;3.88;;;1.60;;
8993;SDS011;4532;50.886;4.700;2022-07-17T02:47:51;3.70;;;2.00;;
8993;SDS011;4532;50.886;4.700;2022-07-17T02:50:21;5.93;;;2.08;;
8993;SDS011;4532;50.886;4.700;2022-07-17T02:52:49;3.30;;;1.55;;
8993;SDS011;4532;50.886;4.700;2022-07-17T02:55:16;3.55;;;1.67;;
8993;SDS011;4532;50.886;4.700;2022-07-17T02:57:46;2.90;;;1.98;;
8993;SDS011;4532;50.886;4.700;2022-07-17T03:00:15;4.93;;;2.33;;
8993;SDS011;4532;50.886;4.700;2022-07-17T03:02:44;4.28;;;1.58;;
8993;SDS011;4532;50.886;4.700;2022-07-17T03:05:12;3.75;;;1.80;;
8993;SDS011;4532;50.886;4.700;2022-07-17T03:07:43;4.50;;;1.90;;
8993;SDS011;4532;50.886;4.700;2022-07-17T03:10:11;3.50;;;2.03;;
8993;SDS011;4532;50.886;4.700;2022-07-17T03:12:38;3.20;;;1.92;;
8993;SDS011;4532;50.886;4.700;2022-07-17T03:15:06;2.78;;;1.88;;
8993;SDS011;4532;50.886;4.700;2022-07-17T03:17:38;6.10;;;1.90;;
8993;SDS011;4532;50.886;4.700;2022-07-17T03:20:07;3.72;;;1.77;;
8993;SDS011;4532;50.886;4.700;2022-07-17T03:22:41;3.53;;;2.17;;
8993;SDS011;4532;50.886;4.700;2022-07-17T03:25:08;4.57;;;1.67;;
8993;SDS011;4532;50.886;4.700;2022-07-17T03:27:36;3.17;;;1.80;;
8993;SDS011;4532;50.886;4.700;2022-07-17T03:30:08;4.63;;;1.85;;
8993;SDS011;4532;50.886;4.700;2022-07-17T03:32:38;4.60;;;2.35;;
8993;SDS011;4532;50.886;4.700;2022-07-17T03:35:07;2.78;;;1.80;;
8993;SDS011;4532;50.886;4.700;2022-07-17T03:37:34;3.65;;;1.75;;
8993;SDS011;4532;50.886;4.700;2022-07-17T03:40:07;5.20;;;1.70;;
8993;SDS011;4532;50.886;4.700;2022-07-17T03:42:34;3.80;;;1.85;;
8993;SDS011;4532;50.886;4.700;2022-07-17T03:45:02;4.05;;;1.70;;
8993;SDS011;4532;50.886;4.700;2022-07-17T03:47:29;2.38;;;1.55;;
8993;SDS011;4532;50.886;4.700;2022-07-17T03:49:57;3.05;;;1.73;;
8993;SDS011;4532;50.886;4.700;2022-07-17T03:52:27;3.63;;;1.90;;
8993;SDS011;4532;50.886;4.700;2022-07-17T03:54:54;5.28;;;2.05;;
8993;SDS011;4532;50.886;4.700;2022-07-17T03:57:24;3.90;;;1.90;;
8993;SDS011;4532;50.886;4.700;2022-07-17T03:59:51;4.53;;;1.90;;
8993;SDS011;4532;50.886;4.700;2022-07-17T04:02:18;3.33;;;1.75;;
8993;SDS011;4532;50.886;4.700;2022-07-17T04:04:46;4.55;;;1.70;;
8993;SDS011;4532;50.886;4.700;2022-07-17T04:07:15;3.42;;;1.92;;
8993;SDS011;4532;50.886;4.700;2022-07-17T04:09:55;2.83;;;1.70;;
8993;SDS011;4532;50.886;4.700;2022-07-17T04:12:26;4.45;;;1.42;;
8993;SDS011;4532;50.886;4.700;2022-07-17T04:14:56;3.78;;;1.60;;
8993;SDS011;4532;50.886;4.700;2022-07-17T04:17:23;4.53;;;1.65;;
8993;SDS011;4532;50.886;4.700;2022-07-17T04:19:51;3.22;;;1.90;;
8993;SDS011;4532;50.886;4.700;2022-07-17T04:22:18;4.35;;;1.85;;
8993;SDS011;4532;50.886;4.700;2022-07-17T04:24:46;6.15;;;2.10;;
8993;SDS011;4532;50.886;4.700;2022-07-17T04:27:13;5.32;;;1.70;;
8993;SDS011;4532;50.886;4.700;2022-07-17T04:29:40;2.85;;;1.70;;
8993;SDS011;4532;50.886;4.700;2022-07-17T04:32:10;4.35;;;1.70;;
8993;SDS011;4532;50.886;4.700;2022-07-17T04:34:40;5.47;;;1.85;;
8993;SDS011;4532;50.886;4.700;2022-07-17T04:37:09;4.10;;;1.92;;
8993;SDS011;4532;50.886;4.700;2022-07-17T04:39:38;3.30;;;1.42;;
8993;SDS011;4532;50.886;4.700;2022-07-17T04:42:06;5.15;;;1.92;;
8993;SDS011;4532;50.886;4.700;2022-07-17T04:44:33;4.70;;;2.38;;
8993;SDS011;4532;50.886;4.700;2022-07-17T04:47:00;5.82;;;2.30;;
8993;SDS011;4532;50.886;4.700;2022-07-17T04:49:27;4.70;;;1.88;;
8993;SDS011;4532;50.886;4.700;2022-07-17T04:51:54;6.18;;;2.00;;
8993;SDS011;4532;50.886;4.700;2022-07-17T04:54:25;6.13;;;2.40;;
8993;SDS011;4532;50.886;4.700;2022-07-17T04:56:54;3.58;;;2.25;;
8993;SDS011;4532;50.886;4.700;2022-07-17T04:59:21;5.07;;;2.30;;
8993;SDS011;4532;50.886;4.700;2022-07-17T05:01:51;3.30;;;1.90;;
8993;SDS011;4532;50.886;4.700;2022-07-17T05:04:18;5.00;;;1.83;;
8993;SDS011;4532;50.886;4.700;2022-07-17T05:06:55;3.78;;;1.83;;
8993;SDS011;4532;50.886;4.700;2022-07-17T05:09:23;3.65;;;1.95;;
8993;SDS011;4532;50.886;4.700;2022-07-17T05:11:52;3.30;;;1.80;;
8993;SDS011;4532;50.886;4.700;2022-07-17T05:14:20;3.40;;;2.10;;
8993;SDS011;4532;50.886;4.700;2022-07-17T05:16:49;5.53;;;1.95;;
8993;SDS011;4532;50.886;4.700;2022-07-17T05:19:16;4.57;;;2.03;;
8993;SDS011;4532;50.886;4.700;2022-07-17T05:21:44;5.20;;;1.95;;
8993;SDS011;4532;50.886;4.700;2022-07-17T05:24:14;5.03;;;2.25;;
8993;SDS011;4532;50.886;4.700;2022-07-17T05:26:41;3.90;;;2.50;;
8993;SDS011;4532;50.886;4.700;2022-07-17T05:29:09;3.00;;;2.00;;
8993;SDS011;4532;50.886;4.700;2022-07-17T05:31:36;4.53;;;1.73;;
8993;SDS011;4532;50.886;4.700;2022-07-17T05:34:03;5.18;;;2.08;;
8993;SDS011;4532;50.886;4.700;2022-07-17T05:36:33;6.95;;;2.22;;
8993;SDS011;4532;50.886;4.700;2022-07-17T05:39:00;3.95;;;1.90;;
8993;SDS011;4532;50.886;4.700;2022-07-17T05:41:30;4.40;;;2.22;;
8993;SDS011;4532;50.886;4.700;2022-07-17T05:43:57;5.13;;;2.15;;
8993;SDS011;4532;50.886;4.700;2022-07-17T05:46:32;3.60;;;1.95;;
8993;SDS011;4532;50.886;4.700;2022-07-17T05:48:59;6.30;;;2.40;;
8993;SDS011;4532;50.886;4.700;2022-07-17T05:51:27;3.42;;;1.73;;
8993;SDS011;4532;50.886;4.700;2022-07-17T05:53:57;5.20;;;2.35;;
8993;SDS011;4532;50.886;4.700;2022-07-17T05:56:24;4.47;;;2.10;;
8993;SDS011;4532;50.886;4.700;2022-07-17T05:58:51;5.05;;;2.25;;
8993;SDS011;4532;50.886;4.700;2022-07-17T06:01:23;4.03;;;2.30;;
8993;SDS011;4532;50.886;4.700;2022-07-17T06:03:51;3.13;;;2.03;;
8993;SDS011;4532;50.886;4.700;2022-07-17T06:06:18;4.00;;;1.88;;
8993;SDS011;4532;50.886;4.700;2022-07-17T06:08:47;2.60;;;2.05;;
8993;SDS011;4532;50.886;4.700;2022-07-17T06:11:14;5.22;;;1.75;;
8993;SDS011;4532;50.886;4.700;2022-07-17T06:13:50;4.72;;;1.80;;
8993;SDS011;4532;50.886;4.700;2022-07-17T06:16:18;3.33;;;1.70;;
8993;SDS011;4532;50.886;4.700;2022-07-17T06:18:45;5.05;;;1.83;;
8993;SDS011;4532;50.886;4.700;2022-07-17T06:21:15;3.75;;;1.48;;
8993;SDS011;4532;50.886;4.700;2022-07-17T06:23:42;2.72;;;1.80;;
8993;SDS011;4532;50.886;4.700;2022-07-17T06:26:14;3.28;;;1.77;;
8993;SDS011;4532;50.886;4.700;2022-07-17T06:28:41;3.97;;;1.80;;
8993;SDS011;4532;50.886;4.700;2022-07-17T06:31:08;5.65;;;1.80;;
8993;SDS011;4532;50.886;4.700;2022-07-17T06:33:36;4.97;;;1.60;;
8993;SDS011;4532;50.886;4.700;2022-07-17T06:36:06;3.17;;;1.80;;
8993;SDS011;4532;50.886;4.700;2022-07-17T06:38:35;3.38;;;1.52;;
8993;SDS011;4532;50.886;4.700;2022-07-17T06:41:03;5.57;;;1.58;;
8993;SDS011;4532;50.886;4.700;2022-07-17T06:43:34;3.83;;;1.50;;
8993;SDS011;4532;50.886;4.700;2022-07-17T06:46:06;4.75;;;1.50;;
8993;SDS011;4532;50.886;4.700;2022-07-17T06:48:34;5.45;;;1.75;;
8993;SDS011;4532;50.886;4.700;2022-07-17T06:51:01;3.55;;;1.65;;
8993;SDS011;4532;50.886;4.700;2022-07-17T06:53:28;4.03;;;1.63;;
8993;SDS011;4532;50.886;4.700;2022-07-17T06:55:57;4.30;;;1.60;;
8993;SDS011;4532;50.886;4.700;2022-07-17T06:58:28;2.60;;;1.52;;
8993;SDS011;4532;50.886;4.700;2022-07-17T07:00:55;4.47;;;1.50;;
8993;SDS011;4532;50.886;4.700;2022-07-17T07:03:22;3.28;;;1.45;;
8993;SDS011;4532;50.886;4.700;2022-07-17T07:05:51;2.95;;;1.50;;
8993;SDS011;4532;50.886;4.700;2022-07-17T07:08:21;5.72;;;1.55;;
8993;SDS011;4532;50.886;4.700;2022-07-17T07:10:51;2.95;;;1.20;;
8993;SDS011;4532;50.886;4.700;2022-07-17T07:13:20;2.28;;;1.23;;
8993;SDS011;4532;50.886;4.700;2022-07-17T07:15:47;5.32;;;1.35;;
8993;SDS011;4532;50.886;4.700;2022-07-17T07:18:17;3.08;;;1.38;;
8993;SDS011;4532;50.886;4.700;2022-07-17T07:20:45;3.70;;;1.42;;
8993;SDS011;4532;50.886;4.700;2022-07-17T07:23:14;6.18;;;1.85;;
8993;SDS011;4532;50.886;4.700;2022-07-17T07:25:41;6.68;;;1.48;;
8993;SDS011;4532;50.886;4.700;2022-07-17T07:28:11;7.45;;;1.92;;
8993;SDS011;4532;50.886;4.700;2022-07-17T07:30:38;4.30;;;1.40;;
8993;SDS011;4532;50.886;4.700;2022-07-17T07:33:08;7.53;;;1.60;;
8993;SDS011;4532;50.886;4.700;2022-07-17T07:35:38;3.42;;;1.10;;
8993;SDS011;4532;50.886;4.700;2022-07-17T07:38:05;4.18;;;1.90;;
8993;SDS011;4532;50.886;4.700;2022-07-17T07:40:32;2.25;;;1.20;;
8993;SDS011;4532;50.886;4.700;2022-07-17T07:43:05;4.18;;;1.60;;
8993;SDS011;4532;50.886;4.700;2022-07-17T07:45:32;4.22;;;1.38;;
8993;SDS011;4532;50.886;4.700;2022-07-17T07:48:00;5.10;;;1.70;;
8993;SDS011;4532;50.886;4.700;2022-07-17T07:50:27;6.72;;;1.80;;
8993;SDS011;4532;50.886;4.700;2022-07-17T07:52:55;5.57;;;1.63;;
8993;SDS011;4532;50.886;4.700;2022-07-17T07:55:25;3.53;;;1.80;;
8993;SDS011;4532;50.886;4.700;2022-07-17T07:58:02;4.32;;;2.03;;
8993;SDS011;4532;50.886;4.700;2022-07-17T08:00:32;4.68;;;1.60;;
8993;SDS011;4532;50.886;4.700;2022-07-17T08:03:01;4.75;;;1.90;;
8993;SDS011;4532;50.886;4.700;2022-07-17T08:05:31;3.55;;;1.98;;
8993;SDS011;4532;50.886;4.700;2022-07-17T08:08:01;5.70;;;1.92;;
8993;SDS011;4532;50.886;4.700;2022-07-17T08:10:28;4.40;;;1.60;;
8993;SDS011;4532;50.886;4.700;2022-07-17T08:12:57;5.53;;;1.95;;
8993;SDS011;4532;50.886;4.700;2022-07-17T08:15:24;3.95;;;1.90;;
8993;SDS011;4532;50.886;4.700;2022-07-17T08:17:52;7.55;;;1.83;;
8993;SDS011;4532;50.886;4.700;2022-07-17T08:20:20;3.20;;;1.60;;
8993;SDS011;4532;50.886;4.700;2022-07-17T08:22:52;3.40;;;1.42;;
8993;SDS011;4532;50.886;4.700;2022-07-17T08:25:35;6.53;;;1.63;;
8993;SDS011;4532;50.886;4.700;2022-07-17T08:28:04;3.25;;;1.60;;
8993;SDS011;4532;50.886;4.700;2022-07-17T08:30:32;3.00;;;1.50;;
8993;SDS011;4532;50.886;4.700;2022-07-17T08:33:05;3.65;;;1.60;;
8993;SDS011;4532;50.886;4.700;2022-07-17T08:35:34;3.55;;;1.23;;
8993;SDS011;4532;50.886;4.700;2022-07-17T08:38:04;4.03;;;1.30;;
8993;SDS011;4532;50.886;4.700;2022-07-17T08:40:36;3.70;;;1.30;;
8993;SDS011;4532;50.886;4.700;2022-07-17T08:43:06;3.65;;;1.77;;
8993;SDS011;4532;50.886;4.700;2022-07-17T08:45:39;3.22;;;1.40;;
8993;SDS011;4532;50.886;4.700;2022-07-17T08:48:15;4.72;;;1.10;;
8993;SDS011;4532;50.886;4.700;2022-07-17T08:50:44;2.88;;;0.98;;
8993;SDS011;4532;50.886;4.700;2022-07-17T08:53:12;3.72;;;1.27;;
8993;SDS011;4532;50.886;4.700;2022-07-17T08:55:39;3.28;;;0.90;;
8993;SDS011;4532;50.886;4.700;2022-07-17T08:58:07;3.05;;;1.20;;
8993;SDS011;4532;50.886;4.700;2022-07-17T09:00:39;4.63;;;1.30;;
8993;SDS011;4532;50.886;4.700;2022-07-17T09:03:07;3.97;;;1.30;;
8993;SDS011;4532;50.886;4.700;2022-07-17T09:05:36;3.03;;;1.40;;
8993;SDS011;4532;50.886;4.700;2022-07-17T09:08:11;4.43;;;1.30;;
8993;SDS011;4532;50.886;4.700;2022-07-17T09:10:47;3.65;;;1.20;;
8993;SDS011;4532;50.886;4.700;2022-07-17T09:15:54;4.38;;;1.85;;
8993;SDS011;4532;50.886;4.700;2022-07-17T09:18:25;3.20;;;1.00;;
8993;SDS011;4532;50.886;4.700;2022-07-17T09:20:55;3.03;;;1.10;;
8993;SDS011;4532;50.886;4.700;2022-07-17T09:23:25;4.13;;;1.52;;
8993;SDS011;4532;50.886;4.700;2022-07-17T09:25:54;4.00;;;1.20;;
8993;SDS011;4532;50.886;4.700;2022-07-17T09:28:26;4.20;;;1.42;;
8993;SDS011;4532;50.886;4.700;2022-07-17T09:30:54;5.85;;;1.52;;
8993;SDS011;4532;50.886;4.700;2022-07-17T09:33:23;3.90;;;1.27;;
8993;SDS011;4532;50.886;4.700;2022-07-17T09:35:56;1.50;;;1.08;;
8993;SDS011;4532;50.886;4.700;2022-07-17T09:38:33;3.85;;;1.25;;
8993;SDS011;4532;50.886;4.700;2022-07-17T09:46:12;2.72;;;1.40;;
8993;SDS011;4532;50.886;4.700;2022-07-17T09:48:44;4.47;;;1.45;;
8993;SDS011;4532;50.886;4.700;2022-07-17T09:51:20;5.43;;;1.67;;
8993;SDS011;4532;50.886;4.700;2022-07-17T09:53:52;3.13;;;1.45;;
8993;SDS011;4532;50.886;4.700;2022-07-17T09:56:25;2.90;;;1.30;;
8993;SDS011;4532;50.886;4.700;2022-07-17T09:59:04;5.65;;;1.65;;
8993;SDS011;4532;50.886;4.700;2022-07-17T10:01:38;6.20;;;1.90;;
8993;SDS011;4532;50.886;4.700;2022-07-17T10:04:08;3.08;;;1.45;;
8993;SDS011;4532;50.886;4.700;2022-07-17T10:06:37;3.58;;;1.40;;
8993;SDS011;4532;50.886;4.700;2022-07-17T10:09:07;3.20;;;1.25;;
8993;SDS011;4532;50.886;4.700;2022-07-17T10:11:38;3.72;;;1.50;;
8993;SDS011;4532;50.886;4.700;2022-07-17T10:14:14;3.50;;;1.58;;
8993;SDS011;4532;50.886;4.700;2022-07-17T10:16:46;2.78;;;1.58;;
8993;SDS011;4532;50.886;4.700;2022-07-17T10:19:20;2.45;;;1.10;;
8993;SDS011;4532;50.886;4.700;2022-07-17T10:21:55;2.55;;;1.40;;
8993;SDS011;4532;50.886;4.700;2022-07-17T10:24:24;3.58;;;1.33;;
8993;SDS011;4532;50.886;4.700;2022-07-17T10:26:58;2.75;;;1.40;;
8993;SDS011;4532;50.886;4.700;2022-07-17T10:29:41;3.78;;;1.25;;
8993;SDS011;4532;50.886;4.700;2022-07-17T10:32:17;3.28;;;1.30;;
8993;SDS011;4532;50.886;4.700;2022-07-17T10:35:03;4.45;;;1.40;;
8993;SDS011;4532;50.886;4.700;2022-07-17T10:42:44;4.45;;;1.45;;
8993;SDS011;4532;50.886;4.700;2022-07-17T10:45:22;3.60;;;1.20;;
8993;SDS011;4532;50.886;4.700;2022-07-17T10:48:10;3.35;;;1.30;;
8993;SDS011;4532;50.886;4.700;2022-07-17T10:53:25;4.65;;;1.40;;
8993;SDS011;4532;50.886;4.700;2022-07-17T10:56:00;6.45;;;1.40;;
8993;SDS011;4532;50.886;4.700;2022-07-17T10:58:34;6.80;;;1.23;;
8993;SDS011;4532;50.886;4.700;2022-07-17T11:01:11;4.00;;;0.90;;
8993;SDS011;4532;50.886;4.700;2022-07-17T11:06:18;3.65;;;1.20;;
8993;SDS011;4532;50.886;4.700;2022-07-17T11:08:51;2.10;;;1.25;;
8993;SDS011;4532;50.886;4.700;2022-07-17T11:11:21;3.60;;;1.40;;
8993;SDS011;4532;50.886;4.700;2022-07-17T11:14:09;2.50;;;1.13;;
8993;SDS011;4532;50.886;4.700;2022-07-17T11:16:38;2.92;;;1.70;;
8993;SDS011;4532;50.886;4.700;2022-07-17T11:19:41;2.05;;;1.20;;
8993;SDS011;4532;50.886;4.700;2022-07-17T11:22:11;1.88;;;1.15;;
8993;SDS011;4532;50.886;4.700;2022-07-17T11:24:40;3.13;;;1.67;;
8993;SDS011;4532;50.886;4.700;2022-07-17T11:27:10;3.55;;;1.40;;
8993;SDS011;4532;50.886;4.700;2022-07-17T11:29:40;2.90;;;1.27;;
8993;SDS011;4532;50.886;4.700;2022-07-17T11:32:07;2.72;;;1.15;;
8993;SDS011;4532;50.886;4.700;2022-07-17T11:34:37;2.33;;;1.00;;
8993;SDS011;4532;50.886;4.700;2022-07-17T11:37:05;2.15;;;1.30;;
8993;SDS011;4532;50.886;4.700;2022-07-17T11:39:40;2.38;;;1.48;;
8993;SDS011;4532;50.886;4.700;2022-07-17T11:42:14;3.08;;;1.45;;
8993;SDS011;4532;50.886;4.700;2022-07-17T11:44:41;4.20;;;1.23;;
8993;SDS011;4532;50.886;4.700;2022-07-17T11:47:11;2.22;;;1.20;;
8993;SDS011;4532;50.886;4.700;2022-07-17T11:49:45;1.48;;;1.00;;
8993;SDS011;4532;50.886;4.700;2022-07-17T11:52:16;3.78;;;1.40;;
8993;SDS011;4532;50.886;4.700;2022-07-17T11:54:54;2.78;;;1.20;;
8993;SDS011;4532;50.886;4.700;2022-07-17T11:57:23;1.95;;;1.10;;
8993;SDS011;4532;50.886;4.700;2022-07-17T12:00:04;2.75;;;1.20;;
8993;SDS011;4532;50.886;4.700;2022-07-17T12:02:37;2.78;;;1.25;;
8993;SDS011;4532;50.886;4.700;2022-07-17T12:05:07;2.47;;;1.30;;
8993;SDS011;4532;50.886;4.700;2022-07-17T12:10:22;1.55;;;1.38;;
8993;SDS011;4532;50.886;4.700;2022-07-17T12:12:53;1.80;;;1.20;;
8993;SDS011;4532;50.886;4.700;2022-07-17T12:15:21;3.15;;;1.60;;
8993;SDS011;4532;50.886;4.700;2022-07-17T12:18:00;5.15;;;1.58;;
8993;SDS011;4532;50.886;4.700;2022-07-17T12:20:48;2.42;;;1.30;;
8993;SDS011;4532;50.886;4.700;2022-07-17T12:28:32;4.53;;;1.30;;
8993;SDS011;4532;50.886;4.700;2022-07-17T12:31:03;4.03;;;1.40;;
8993;SDS011;4532;50.886;4.700;2022-07-17T12:33:33;2.47;;;1.30;;
8993;SDS011;4532;50.886;4.700;2022-07-17T12:36:03;3.58;;;1.38;;
8993;SDS011;4532;50.886;4.700;2022-07-17T12:38:33;4.28;;;1.23;;
8993;SDS011;4532;50.886;4.700;2022-07-17T12:41:20;5.05;;;1.48;;
8993;SDS011;4532;50.886;4.700;2022-07-17T12:43:47;3.63;;;1.60;;
8993;SDS011;4532;50.886;4.700;2022-07-17T12:46:14;2.45;;;1.10;;
8993;SDS011;4532;50.886;4.700;2022-07-17T12:48:44;1.67;;;1.30;;
8993;SDS011;4532;50.886;4.700;2022-07-17T12:51:13;1.98;;;1.30;;
8993;SDS011;4532;50.886;4.700;2022-07-17T12:53:44;3.13;;;1.15;;
8993;SDS011;4532;50.886;4.700;2022-07-17T12:56:13;1.90;;;1.23;;
8993;SDS011;4532;50.886;4.700;2022-07-17T12:58:43;1.50;;;1.10;;
8993;SDS011;4532;50.886;4.700;2022-07-17T13:01:10;1.35;;;1.10;;
8993;SDS011;4532;50.886;4.700;2022-07-17T13:03:38;1.23;;;1.13;;
8993;SDS011;4532;50.886;4.700;2022-07-17T13:06:07;2.65;;;1.40;;
8993;SDS011;4532;50.886;4.700;2022-07-17T13:08:35;1.73;;;1.20;;
8993;SDS011;4532;50.886;4.700;2022-07-17T13:11:03;2.00;;;1.10;;
8993;SDS011;4532;50.886;4.700;2022-07-17T13:13:39;1.70;;;1.10;;
8993;SDS011;4532;50.886;4.700;2022-07-17T13:16:10;1.88;;;1.23;;
8993;SDS011;4532;50.886;4.700;2022-07-17T13:18:45;1.50;;;1.40;;
8993;SDS011;4532;50.886;4.700;2022-07-17T13:21:15;1.33;;;0.90;;
8993;SDS011;4532;50.886;4.700;2022-07-17T13:23:42;3.20;;;1.58;;
8993;SDS011;4532;50.886;4.700;2022-07-17T13:26:13;1.48;;;0.98;;
8993;SDS011;4532;50.886;4.700;2022-07-17T13:28:45;1.30;;;1.13;;
8993;SDS011;4532;50.886;4.700;2022-07-17T13:31:17;1.48;;;1.10;;
8993;SDS011;4532;50.886;4.700;2022-07-17T13:33:47;2.05;;;1.13;;
8993;SDS011;4532;50.886;4.700;2022-07-17T13:36:14;1.30;;;1.20;;
8993;SDS011;4532;50.886;4.700;2022-07-17T13:38:44;1.40;;;1.30;;
8993;SDS011;4532;50.886;4.700;2022-07-17T13:41:11;1.42;;;1.17;;
8993;SDS011;4532;50.886;4.700;2022-07-17T13:43:39;1.80;;;1.08;;
8993;SDS011;4532;50.886;4.700;2022-07-17T13:46:09;1.98;;;1.15;;
8993;SDS011;4532;50.886;4.700;2022-07-17T13:48:36;1.20;;;1.10;;
8993;SDS011;4532;50.886;4.700;2022-07-17T13:51:03;2.60;;;1.35;;
8993;SDS011;4532;50.886;4.700;2022-07-17T13:53:32;1.35;;;1.00;;
8993;SDS011;4532;50.886;4.700;2022-07-17T13:56:01;2.85;;;1.17;;
8993;SDS011;4532;50.886;4.700;2022-07-17T13:58:29;0.95;;;0.95;;
8993;SDS011;4532;50.886;4.700;2022-07-17T14:01:00;1.10;;;1.00;;
8993;SDS011;4532;50.886;4.700;2022-07-17T14:03:28;1.13;;;1.02;;
8993;SDS011;4532;50.886;4.700;2022-07-17T14:05:56;1.98;;;1.10;;
8993;SDS011;4532;50.886;4.700;2022-07-17T14:08:25;1.30;;;0.90;;
8993;SDS011;4532;50.886;4.700;2022-07-17T14:10:53;1.73;;;1.00;;
8993;SDS011;4532;50.886;4.700;2022-07-17T14:13:22;1.80;;;1.27;;
8993;SDS011;4532;50.886;4.700;2022-07-17T14:15:52;1.25;;;1.00;;
8993;SDS011;4532;50.886;4.700;2022-07-17T14:18:19;1.67;;;1.15;;
8993;SDS011;4532;50.886;4.700;2022-07-17T14:20:46;1.88;;;0.90;;
8993;SDS011;4532;50.886;4.700;2022-07-17T14:23:13;2.13;;;1.30;;
8993;SDS011;4532;50.886;4.700;2022-07-17T14:25:43;1.83;;;1.08;;
8993;SDS011;4532;50.886;4.700;2022-07-17T14:28:12;1.55;;;1.25;;
8993;SDS011;4532;50.886;4.700;2022-07-17T14:30:39;1.17;;;1.08;;
8993;SDS011;4532;50.886;4.700;2022-07-17T14:33:12;1.20;;;1.00;;
8993;SDS011;4532;50.886;4.700;2022-07-17T14:35:40;0.80;;;0.80;;
8993;SDS011;4532;50.886;4.700;2022-07-17T14:38:07;1.55;;;1.10;;
8993;SDS011;4532;50.886;4.700;2022-07-17T14:40:34;1.20;;;1.00;;
8993;SDS011;4532;50.886;4.700;2022-07-17T14:43:04;1.55;;;1.20;;
8993;SDS011;4532;50.886;4.700;2022-07-17T14:45:33;1.65;;;0.90;;
8993;SDS011;4532;50.886;4.700;2022-07-17T14:48:02;2.65;;;1.70;;
8993;SDS011;4532;50.886;4.700;2022-07-17T14:50:30;1.17;;;1.05;;
8993;SDS011;4532;50.886;4.700;2022-07-17T14:52:57;1.20;;;1.10;;
8993;SDS011;4532;50.886;4.700;2022-07-17T14:55:24;3.22;;;1.30;;
8993;SDS011;4532;50.886;4.700;2022-07-17T14:57:52;1.92;;;1.10;;
8993;SDS011;4532;50.886;4.700;2022-07-17T15:00:22;1.98;;;1.20;;
8993;SDS011;4532;50.886;4.700;2022-07-17T15:02:51;2.75;;;0.90;;
8993;SDS011;4532;50.886;4.700;2022-07-17T15:05:19;4.18;;;1.85;;
8993;SDS011;4532;50.886;4.700;2022-07-17T15:07:46;2.05;;;1.05;;
8993;SDS011;4532;50.886;4.700;2022-07-17T15:10:16;0.80;;;0.80;;
8993;SDS011;4532;50.886;4.700;2022-07-17T15:12:43;2.03;;;1.00;;
8993;SDS011;4532;50.886;4.700;2022-07-17T15:15:12;1.00;;;0.90;;
8993;SDS011;4532;50.886;4.700;2022-07-17T15:17:42;1.83;;;1.02;;
8993;SDS011;4532;50.886;4.700;2022-07-17T15:20:09;1.52;;;0.90;;
8993;SDS011;4532;50.886;4.700;2022-07-17T15:22:39;1.88;;;1.00;;
8993;SDS011;4532;50.886;4.700;2022-07-17T15:25:07;2.17;;;0.88;;
8993;SDS011;4532;50.886;4.700;2022-07-17T15:27:34;1.10;;;0.82;;
8993;SDS011;4532;50.886;4.700;2022-07-17T15:30:02;1.35;;;0.90;;
8993;SDS011;4532;50.886;4.700;2022-07-17T15:32:31;1.02;;;0.85;;
8993;SDS011;4532;50.886;4.700;2022-07-17T15:35:03;1.88;;;1.08;;
8993;SDS011;4532;50.886;4.700;2022-07-17T15:37:34;0.90;;;0.90;;
8993;SDS011;4532;50.886;4.700;2022-07-17T15:40:04;2.20;;;0.90;;
8993;SDS011;4532;50.886;4.700;2022-07-17T15:42:32;1.58;;;0.93;;
8993;SDS011;4532;50.886;4.700;2022-07-17T15:44:59;1.60;;;1.25;;
8993;SDS011;4532;50.886;4.700;2022-07-17T15:47:27;1.23;;;0.93;;
8993;SDS011;4532;50.886;4.700;2022-07-17T15:49:56;1.45;;;0.90;;
8993;SDS011;4532;50.886;4.700;2022-07-17T15:52:24;2.63;;;0.95;;
8993;SDS011;4532;50.886;4.700;2022-07-17T15:54:51;1.80;;;1.10;;
8993;SDS011;4532;50.886;4.700;2022-07-17T15:57:18;2.17;;;0.88;;